Time;durP1;ratioP1;P1;durP2;ratioP2;P2;SDS_P1;SDS_P2;PMS_P1;PMS_P2;Temp;Humidity;BMP_temperature;BMP_pressure;BME280_temperature;BME280_humidity;BME280_pressure;Samples;Min_cycle;Max_cycle;Signal;HPM_P1;HPM_P2
2021/08/10 00:02:04;;;;;;;4.18;2.17;;;;;;;18.05;80.08;96570.03;5074742;28;20204;-67
2021/08/10 00:04:30;;;;;;;5.28;2.08;;;;;;;17.96;79.94;96574.00;5077275;28;20672;-67
2021/08/10 00:06:58;;;;;;;3.38;2.10;;;;;;;17.89;78.97;96579.38;5076531;28;20210;-66
2021/08/10 00:09:25;;;;;;;3.25;1.70;;;;;;;17.86;79.49;96576.34;5077276;28;21005;-66
2021/08/10 00:11:51;;;;;;;4.05;2.40;;;;;;;17.46;81.01;96579.38;5077366;28;20203;-67
2021/08/10 00:14:18;;;;;;;3.13;2.03;;;;;;;17.53;79.89;96575.66;5076328;28;20250;-67
2021/08/10 00:16:44;;;;;;;4.20;1.80;;;;;;;17.65;80.53;96579.28;5076513;28;20215;-67
2021/08/10 00:19:11;;;;;;;3.58;2.03;;;;;;;17.57;80.03;96576.06;5076917;28;20204;-67
2021/08/10 00:21:37;;;;;;;2.80;1.77;;;;;;;17.17;81.52;96569.19;5076844;28;20981;-67
2021/08/10 00:24:06;;;;;;;4.50;2.10;;;;;;;17.11;81.47;96576.19;5077440;28;20223;-67
2021/08/10 00:26:32;;;;;;;4.85;2.00;;;;;;;17.29;80.73;96568.38;5076120;28;20199;-67
2021/08/10 00:28:59;;;;;;;5.85;2.17;;;;;;;17.43;81.46;96564.63;5076132;28;20226;-66
2021/08/10 00:31:25;;;;;;;3.25;1.95;;;;;;;17.44;81.83;96560.94;5076845;28;20207;-67
2021/08/10 00:33:52;;;;;;;5.82;2.15;;;;;;;17.40;80.87;96551.75;5077664;28;20232;-67
2021/08/10 00:36:18;;;;;;;3.70;1.98;;;;;;;17.45;80.35;96557.28;5075640;28;20203;-66
2021/08/10 00:38:45;;;;;;;3.75;2.00;;;;;;;17.56;79.74;96553.13;5076449;28;20582;-67
2021/08/10 00:41:12;;;;;;;6.25;2.10;;;;;;;17.52;80.79;96555.38;5077134;28;20223;-67
2021/08/10 00:43:40;;;;;;;3.47;1.85;;;;;;;17.62;80.58;96545.09;5076325;28;21258;-67
2021/08/10 00:46:09;;;;;;;3.08;1.90;;;;;;;17.36;79.80;96553.19;5075579;28;21175;-67
2021/08/10 00:48:36;;;;;;;4.47;2.00;;;;;;;17.26;79.32;96552.00;5076732;28;21058;-67
2021/08/10 00:51:05;;;;;;;3.40;1.90;;;;;;;17.25;80.93;96553.03;5076658;28;20202;-67
2021/08/10 00:53:31;;;;;;;3.28;2.20;;;;;;;17.08;80.89;96553.66;5076670;28;20223;-67
2021/08/10 00:55:58;;;;;;;4.40;2.00;;;;;;;16.79;81.77;96559.44;5075650;28;20579;-67
2021/08/10 00:58:26;;;;;;;6.28;2.13;;;;;;;17.17;81.87;96543.41;5076412;28;20207;-67
2021/08/10 01:00:52;;;;;;;5.95;2.38;;;;;;;16.86;83.37;96560.28;5073788;28;20244;-67
2021/08/10 01:03:19;;;;;;;4.07;2.50;;;;;;;16.62;83.05;96551.09;5076866;28;20226;-67
2021/08/10 01:05:47;;;;;;;3.75;1.92;;;;;;;16.81;82.55;96552.09;5075784;28;20235;-67
2021/08/10 01:08:20;;;;;;;3.17;1.92;;;;;;;16.87;82.07;96551.28;5076072;28;20210;-67
2021/08/10 01:10:55;;;;;;;6.10;1.92;;;;;;;16.99;81.84;96542.41;5076485;28;20200;-67
2021/08/10 01:13:30;;;;;;;3.65;1.80;;;;;;;17.16;80.67;96535.63;5076491;28;20587;-67
2021/08/10 01:16:04;;;;;;;4.03;2.10;;;;;;;16.82;81.88;96549.22;5075801;28;20203;-67
2021/08/10 01:18:36;;;;;;;3.08;1.85;;;;;;;16.93;81.76;96537.09;5076655;28;20211;-67
2021/08/10 01:21:19;;;;;;;2.88;2.17;;;;;;;17.06;82.07;96534.44;5076225;28;20726;-67
2021/08/10 01:23:49;;;;;;;5.03;2.30;;;;;;;16.96;82.16;96536.72;5076009;28;20222;-67
2021/08/10 01:26:26;;;;;;;4.32;1.92;;;;;;;17.10;82.02;96534.59;5075532;28;20200;-67
2021/08/10 01:29:04;;;;;;;5.60;1.92;;;;;;;16.89;81.79;96533.22;5076767;28;20226;-67
2021/08/10 01:31:34;;;;;;;4.28;1.80;;;;;;;16.93;81.17;96542.44;5076360;28;21212;-67
2021/08/10 01:34:04;;;;;;;5.38;2.10;;;;;;;17.09;81.80;96534.81;5076802;28;20231;-67
2021/08/10 01:36:34;;;;;;;2.95;2.13;;;;;;;17.02;82.96;96538.50;5075763;28;20196;-67
2021/08/10 01:39:02;;;;;;;4.53;2.10;;;;;;;16.74;82.69;96538.00;5076030;28;20200;-67
2021/08/10 01:41:31;;;;;;;3.70;1.95;;;;;;;16.88;81.67;96536.91;5076483;28;20223;-67
2021/08/10 01:43:59;;;;;;;2.40;1.95;;;;;;;16.79;81.54;96539.00;5076861;28;20800;-67
2021/08/10 01:46:27;;;;;;;3.85;1.65;;;;;;;16.71;82.36;96531.25;5074961;28;20203;-67
2021/08/10 01:48:56;;;;;;;2.47;1.73;;;;;;;16.78;81.98;96536.53;5075415;28;20216;-67
2021/08/10 01:51:26;;;;;;;4.25;2.38;;;;;;;16.84;83.62;96531.22;5076022;28;20196;-67
2021/08/10 01:53:54;;;;;;;8.30;2.75;;;;;;;16.57;84.33;96531.44;5075617;28;20223;-67
2021/08/10 01:56:22;;;;;;;3.88;2.30;;;;;;;16.71;83.13;96530.41;5074796;28;20215;-67
2021/08/10 01:58:51;;;;;;;2.72;2.10;;;;;;;16.57;82.90;96532.28;5076773;28;20204;-67
2021/08/10 02:01:18;;;;;;;7.60;2.28;;;;;;;16.59;82.14;96527.56;5072308;28;21158;-67
2021/08/10 02:03:46;;;;;;;5.72;2.05;;;;;;;16.67;82.39;96523.84;5076529;28;20234;-67
2021/08/10 02:06:15;;;;;;;4.18;1.98;;;;;;;16.60;83.18;96517.75;5078772;28;20706;-67
2021/08/10 02:08:42;;;;;;;5.28;2.15;;;;;;;16.68;82.38;96522.84;5079266;28;20208;-67
2021/08/10 02:11:11;;;;;;;3.65;2.03;;;;;;;16.77;82.32;96526.91;5079659;28;20204;-67
2021/08/10 02:13:38;;;;;;;4.68;1.90;;;;;;;16.64;80.97;96519.78;5079348;28;20992;-67
2021/08/10 02:16:08;;;;;;;5.60;2.10;;;;;;;16.68;81.88;96515.66;5078772;28;20208;-67
2021/08/10 02:18:34;;;;;;;4.18;2.10;;;;;;;16.54;82.19;96507.91;5079190;28;20340;-66
2021/08/10 02:21:04;;;;;;;4.78;2.33;;;;;;;16.83;81.35;96502.13;5079180;28;20228;-66
2021/08/10 02:23:33;;;;;;;3.28;2.00;;;;;;;16.79;83.28;96500.91;5079426;28;20220;-66
2021/08/10 02:26:01;;;;;;;3.17;2.10;;;;;;;16.80;83.19;96505.19;5077928;28;21204;-66
2021/08/10 02:28:29;;;;;;;4.60;2.40;;;;;;;16.82;81.99;96498.66;5079279;28;20223;-66
2021/08/10 02:30:59;;;;;;;5.82;2.60;;;;;;;16.82;81.94;96500.50;5079346;28;20578;-66
2021/08/10 02:33:28;;;;;;;6.65;2.47;;;;;;;16.49;83.24;96505.88;5079176;28;20590;-66
2021/08/10 02:35:58;;;;;;;4.00;2.08;;;;;;;16.60;82.76;96505.25;5078090;28;20211;-66
2021/08/10 02:38:26;;;;;;;3.17;2.13;;;;;;;16.37;82.80;96511.19;5078749;28;20200;-66
2021/08/10 02:40:56;;;;;;;3.00;2.05;;;;;;;16.66;81.68;96500.94;5078934;28;20770;-67
2021/08/10 02:43:27;;;;;;;3.10;1.83;;;;;;;16.72;82.18;96505.44;5075234;28;20220;-67
2021/08/10 02:45:54;;;;;;;4.93;2.28;;;;;;;16.60;83.33;96501.78;5078094;28;20267;-66
2021/08/10 02:48:20;;;;;;;3.63;2.30;;;;;;;16.64;83.40;96493.16;5078892;28;20995;-67
2021/08/10 02:50:47;;;;;;;4.65;2.30;;;;;;;16.77;82.74;96505.63;5078909;28;20891;-67
2021/08/10 02:53:14;;;;;;;4.93;2.70;;;;;;;16.66;81.72;96508.91;5078579;28;21004;-67
2021/08/10 02:55:46;;;;;;;2.75;2.13;;;;;;;16.51;81.29;96498.50;5078490;28;20214;-67
2021/08/10 02:58:19;;;;;;;4.43;2.08;;;;;;;16.33;81.54;96505.50;5078718;28;20200;-67
2021/08/10 03:00:50;;;;;;;3.33;2.28;;;;;;;16.27;82.63;96514.28;5075035;28;20228;-67
2021/08/10 03:03:19;;;;;;;5.07;2.55;;;;;;;16.31;82.69;96518.16;5078434;28;20220;-67
2021/08/10 03:05:49;;;;;;;3.30;2.13;;;;;;;16.34;82.03;96520.41;5078322;28;20204;-67
2021/08/10 03:08:21;;;;;;;8.32;2.13;;;;;;;16.20;82.74;96515.28;5078030;28;20196;-67
2021/08/10 03:10:49;;;;;;;5.82;2.33;;;;;;;16.13;83.67;96514.47;5078321;28;20676;-67
2021/08/10 03:13:18;;;;;;;6.35;2.63;;;;;;;16.20;83.04;96526.72;5078639;28;20215;-67
2021/08/10 03:15:45;;;;;;;5.13;2.17;;;;;;;16.01;84.52;96522.22;5077384;28;20204;-67
2021/08/10 03:18:15;;;;;;;5.22;2.67;;;;;;;15.96;84.07;96518.53;5078323;28;20215;-67
2021/08/10 03:20:44;;;;;;;6.72;3.08;;;;;;;16.21;85.84;96517.72;5078500;28;20227;-67
2021/08/10 03:23:15;;;;;;;3.78;2.72;;;;;;;16.07;85.85;96526.72;5078013;28;20224;-67
2021/08/10 03:25:45;;;;;;;7.72;3.15;;;;;;;16.31;86.61;96528.00;5077367;28;20231;-67
2021/08/10 03:28:13;;;;;;;7.03;3.28;;;;;;;16.30;85.69;96524.50;5078599;28;20219;-67
2021/08/10 03:30:42;;;;;;;6.80;2.72;;;;;;;16.43;84.62;96519.16;5078017;28;20231;-66
2021/08/10 03:33:10;;;;;;;5.03;2.58;;;;;;;16.44;84.10;96525.31;5077948;28;20220;-67
2021/08/10 03:35:37;;;;;;;5.60;2.47;;;;;;;16.66;82.79;96516.91;5077477;28;20200;-66
2021/08/10 03:38:04;;;;;;;7.00;2.90;;;;;;;16.69;82.55;96516.50;5077627;28;20574;-66
2021/08/10 03:40:31;;;;;;;4.28;3.00;;;;;;;16.47;83.34;96507.13;5077749;28;20228;-67
2021/08/10 03:42:58;;;;;;;6.05;2.70;;;;;;;16.55;83.17;96514.88;5077714;28;20223;-66
2021/08/10 03:45:26;;;;;;;3.92;2.28;;;;;;;16.16;82.60;96514.84;5077257;28;20988;-67
2021/08/10 03:47:55;;;;;;;4.38;2.05;;;;;;;16.05;83.56;96522.63;5077404;28;20771;-66
2021/08/10 03:50:22;;;;;;;6.57;2.63;;;;;;;16.26;83.72;96520.63;5077635;28;20204;-66
2021/08/10 03:52:49;;;;;;;2.95;2.33;;;;;;;16.44;85.45;96520.00;5077651;28;21037;-67
2021/08/10 03:55:16;;;;;;;7.53;2.20;;;;;;;16.40;82.43;96518.78;5076429;28;20196;-67
2021/08/10 03:57:46;;;;;;;6.88;2.33;;;;;;;16.26;82.77;96520.63;5077829;28;20249;-67
2021/08/10 04:00:15;;;;;;;5.05;2.65;;;;;;;16.25;82.16;96521.59;5077665;28;20200;-67
2021/08/10 04:02:42;;;;;;;5.45;3.03;;;;;;;16.13;82.80;96523.25;5074538;28;20730;-67
2021/08/10 04:05:12;;;;;;;7.18;2.78;;;;;;;16.13;83.01;96533.88;5077193;28;20210;-67
2021/08/10 04:07:41;;;;;;;7.68;3.05;;;;;;;16.04;83.58;96526.31;5077790;28;20203;-67
2021/08/10 04:10:08;;;;;;;8.18;2.80;;;;;;;15.91;84.64;96526.28;5076883;28;20868;-67
2021/08/10 04:12:35;;;;;;;5.28;3.05;;;;;;;15.94;84.95;96525.91;5076575;28;20234;-67
2021/08/10 04:15:02;;;;;;;9.82;3.30;;;;;;;15.89;85.33;96534.47;5077872;28;20218;-67
2021/08/10 04:17:32;;;;;;;7.90;3.58;;;;;;;16.17;85.39;96521.81;5076464;28;20203;-67
2021/08/10 04:19:59;;;;;;;6.97;3.20;;;;;;;15.85;86.30;96522.59;5076927;28;20219;-67
2021/08/10 04:22:27;;;;;;;6.20;3.80;;;;;;;16.26;85.48;96522.47;5076692;28;20228;-67
2021/08/10 04:24:53;;;;;;;6.80;3.88;;;;;;;16.13;85.66;96523.25;5076957;28;21031;-67
2021/08/10 04:27:20;;;;;;;7.38;3.42;;;;;;;16.16;86.12;96525.50;5076221;28;20208;-67
2021/08/10 04:29:46;;;;;;;7.05;3.58;;;;;;;16.08;87.10;96525.69;5076599;28;20211;-67
2021/08/10 04:32:12;;;;;;;4.70;3.40;;;;;;;16.16;86.83;96522.84;5076875;28;20547;-67
2021/08/10 04:34:39;;;;;;;12.25;3.95;;;;;;;16.29;87.16;96520.19;5076819;28;20212;-67
2021/08/10 04:37:06;;;;;;;6.82;3.88;;;;;;;16.41;86.09;96526.56;5075957;28;20211;-66
2021/08/10 04:39:33;;;;;;;8.38;3.92;;;;;;;16.52;86.23;96531.25;5077072;28;21031;-67
2021/08/10 04:42:00;;;;;;;8.30;4.43;;;;;;;16.43;86.74;96524.50;5076772;28;20223;-67
2021/08/10 04:44:26;;;;;;;6.50;4.18;;;;;;;16.44;87.39;96528.78;5076455;28;20200;-66
2021/08/10 04:46:53;;;;;;;6.00;4.10;;;;;;;16.52;87.39;96523.25;5076236;28;20200;-66
2021/08/10 04:49:19;;;;;;;9.98;5.30;;;;;;;16.59;87.81;96518.75;5077076;28;20203;-66
2021/08/10 04:51:46;;;;;;;7.57;3.78;;;;;;;16.56;88.76;96527.97;5076446;28;20200;-67
2021/08/10 04:54:15;;;;;;;9.15;4.00;;;;;;;16.62;88.52;96532.47;5076744;28;20223;-67
2021/08/10 04:56:42;;;;;;;7.50;4.63;;;;;;;16.80;89.04;96529.16;5076176;28;20259;-67
2021/08/10 04:59:09;;;;;;;7.65;3.97;;;;;;;16.77;89.92;96524.25;5076719;28;20200;-66
2021/08/10 05:01:35;;;;;;;7.10;4.40;;;;;;;16.92;89.73;96527.50;5074157;28;20270;-67
2021/08/10 05:04:02;;;;;;;7.40;4.47;;;;;;;17.05;89.00;96514.97;5076565;28;21043;-67
2021/08/10 05:06:28;;;;;;;6.63;4.57;;;;;;;17.14;88.93;96522.53;5075877;28;20210;-66
2021/08/10 05:08:54;;;;;;;9.23;4.60;;;;;;;17.36;88.50;96518.56;5076787;28;20210;-67
2021/08/10 05:11:21;;;;;;;6.63;4.43;;;;;;;17.37;88.65;96517.50;5076805;28;20204;-67
2021/08/10 05:13:49;;;;;;;14.30;5.90;;;;;;;17.62;89.07;96523.75;5076384;28;20227;-67
2021/08/10 05:16:15;;;;;;;10.20;5.60;;;;;;;17.52;89.34;96530.59;5075671;28;20207;-67
2021/08/10 05:18:42;;;;;;;9.48;4.95;;;;;;;17.59;88.46;96523.38;5073543;28;20211;-67
2021/08/10 05:21:08;;;;;;;6.63;4.50;;;;;;;17.58;88.00;96514.56;5075865;28;20216;-66
2021/08/10 05:23:35;;;;;;;9.40;4.97;;;;;;;17.77;87.18;96519.78;5075775;28;20231;-67
2021/08/10 05:26:01;;;;;;;7.65;4.57;;;;;;;17.83;86.29;96523.44;5075181;28;20567;-66
2021/08/10 05:28:28;;;;;;;8.10;4.82;;;;;;;17.97;87.37;96517.81;5075141;28;20613;-67
2021/08/10 05:30:56;;;;;;;10.30;4.85;;;;;;;18.26;87.75;96511.06;5076298;28;20227;-67
2021/08/10 05:33:22;;;;;;;10.23;5.20;;;;;;;18.10;87.90;96516.88;5075478;28;20269;-67
2021/08/10 05:35:49;;;;;;;9.05;5.00;;;;;;;18.24;87.38;96518.44;5074997;28;20209;-67
2021/08/10 05:38:15;;;;;;;12.77;4.78;;;;;;;18.35;85.97;96516.72;5076035;28;20203;-67
2021/08/10 05:40:42;;;;;;;9.55;4.63;;;;;;;18.47;85.20;96528.31;5079320;28;20207;-67
2021/08/10 05:43:08;;;;;;;9.75;5.22;;;;;;;18.50;84.73;96516.38;5079204;28;20900;-67
2021/08/10 05:45:35;;;;;;;9.98;4.70;;;;;;;18.61;84.65;96524.50;5079779;28;20360;-67
2021/08/10 05:48:03;;;;;;;8.80;5.00;;;;;;;18.76;85.66;96521.47;5080416;28;20249;-67
2021/08/10 05:50:29;;;;;;;9.18;4.60;;;;;;;18.72;86.24;96520.28;5079340;28;20200;-67
2021/08/10 05:52:55;;;;;;;15.00;4.65;;;;;;;18.74;85.70;96529.72;5079247;28;20220;-67
2021/08/10 05:55:22;;;;;;;11.18;4.40;;;;;;;18.83;86.46;96528.41;5078781;28;20206;-67
2021/08/10 05:57:48;;;;;;;11.70;4.70;;;;;;;18.52;85.84;96527.66;5079393;28;20586;-67
2021/08/10 06:00:15;;;;;;;13.55;4.70;;;;;;;18.84;85.75;96535.38;5079743;28;20204;-67
2021/08/10 06:02:41;;;;;;;9.88;5.05;;;;;;;18.76;84.96;96540.16;5076801;28;20239;-67
2021/08/10 06:05:10;;;;;;;12.85;4.82;;;;;;;18.63;85.09;96548.31;5079707;28;20553;-67
2021/08/10 06:07:36;;;;;;;6.60;4.38;;;;;;;18.43;83.97;96540.47;5079520;28;20212;-67
2021/08/10 06:10:03;;;;;;;6.93;4.18;;;;;;;18.62;82.84;96536.81;5079720;28;20199;-67
2021/08/10 06:12:30;;;;;;;8.50;4.53;;;;;;;18.89;82.53;96532.84;5080214;28;20219;-67
2021/08/10 06:14:56;;;;;;;9.25;4.10;;;;;;;19.01;82.87;96541.75;5078488;28;21067;-67
2021/08/10 06:17:22;;;;;;;7.57;4.00;;;;;;;18.67;83.17;96538.81;5079066;28;21057;-67
2021/08/10 06:19:49;;;;;;;8.43;4.05;;;;;;;18.69;83.15;96540.22;5079410;28;20208;-67
2021/08/10 06:22:17;;;;;;;15.00;4.68;;;;;;;19.10;82.48;96543.94;5077549;28;20219;-67
2021/08/10 06:24:43;;;;;;;8.02;4.63;;;;;;;19.03;81.70;96539.69;5077673;28;20203;-67
2021/08/10 06:27:10;;;;;;;6.53;4.05;;;;;;;19.18;81.34;96530.31;5079498;28;20874;-67
2021/08/10 06:29:36;;;;;;;8.20;4.25;;;;;;;18.82;83.21;96536.63;5079068;28;20219;-67
2021/08/10 06:32:03;;;;;;;9.10;4.40;;;;;;;19.07;82.89;96546.25;5078008;28;20196;-67
2021/08/10 06:34:29;;;;;;;12.05;4.55;;;;;;;19.19;82.01;96539.94;5079420;28;20200;-67
2021/08/10 06:36:56;;;;;;;13.40;5.40;;;;;;;18.98;83.38;96547.56;5077202;28;20768;-67
2021/08/10 06:39:25;;;;;;;10.75;4.43;;;;;;;18.93;83.15;96548.22;5077529;28;21092;-66
2021/08/10 06:41:51;;;;;;;9.93;5.07;;;;;;;18.87;83.40;96553.63;5078171;28;20316;-67
2021/08/10 06:44:18;;;;;;;8.15;4.30;;;;;;;18.97;81.88;96556.59;5079515;28;20200;-66
2021/08/10 06:46:44;;;;;;;8.18;4.40;;;;;;;19.23;81.65;96551.00;5077761;28;21095;-67
2021/08/10 06:49:11;;;;;;;6.68;4.18;;;;;;;18.99;83.74;96543.81;5077435;28;20200;-67
2021/08/10 06:51:37;;;;;;;7.63;4.38;;;;;;;19.22;83.03;96541.34;5078577;28;20206;-66
2021/08/10 06:54:04;;;;;;;7.85;4.45;;;;;;;19.49;81.43;96543.50;5077045;28;20228;-67
2021/08/10 06:56:32;;;;;;;8.98;4.35;;;;;;;19.57;81.80;96547.75;5076632;28;20204;-67
2021/08/10 06:58:58;;;;;;;6.38;4.53;;;;;;;19.46;82.23;96545.81;5076951;28;21280;-67
2021/08/10 07:01:25;;;;;;;7.43;4.95;;;;;;;19.51;81.66;96538.72;5074356;28;20200;-67
2021/08/10 07:03:53;;;;;;;10.90;5.20;;;;;;;19.72;81.40;96538.28;5077637;28;20223;-67
2021/08/10 07:06:20;;;;;;;8.82;4.88;;;;;;;19.85;82.38;96540.78;5077193;28;20245;-67
2021/08/10 07:08:52;;;;;;;8.27;5.53;;;;;;;19.71;82.82;96542.78;5078144;28;20668;-67
2021/08/10 07:11:18;;;;;;;9.15;4.97;;;;;;;19.84;81.41;96547.16;5078436;28;20707;-67
2021/08/10 07:13:46;;;;;;;7.15;4.72;;;;;;;20.23;80.48;96539.41;5077959;28;20231;-67
2021/08/10 07:16:12;;;;;;;12.43;5.40;;;;;;;20.12;80.00;96545.53;5077152;28;20210;-66
2021/08/10 07:18:39;;;;;;;8.77;5.00;;;;;;;20.12;80.14;96548.22;5077818;28;20208;-67
2021/08/10 07:21:06;;;;;;;9.13;5.43;;;;;;;20.42;78.88;96543.66;5077388;28;20205;-67
2021/08/10 07:23:32;;;;;;;9.52;5.18;;;;;;;20.29;78.15;96549.22;5078048;28;20228;-66
2021/08/10 07:25:59;;;;;;;14.13;5.63;;;;;;;20.20;77.66;96554.06;5073391;28;20200;-67
2021/08/10 07:28:25;;;;;;;8.88;4.32;;;;;;;20.26;76.96;96560.34;5076333;28;20200;-66
2021/08/10 07:30:53;;;;;;;8.73;4.80;;;;;;;20.42;77.30;96557.03;5077702;28;20200;-67
2021/08/10 07:33:20;;;;;;;6.18;4.40;;;;;;;20.29;77.28;96559.91;5075581;28;20707;-67
2021/08/10 07:35:46;;;;;;;8.15;4.32;;;;;;;20.81;76.24;96551.84;5075691;28;20249;-67
2021/08/10 07:38:13;;;;;;;8.88;4.57;;;;;;;20.82;75.68;96550.00;5076588;28;20216;-67
2021/08/10 07:40:39;;;;;;;6.05;4.35;;;;;;;20.68;76.49;96551.25;5076054;28;20207;-66
2021/08/10 07:43:05;;;;;;;12.05;4.35;;;;;;;20.71;76.26;96543.56;5074951;28;20228;-67
2021/08/10 07:45:32;;;;;;;6.93;4.30;;;;;;;21.20;74.92;96533.19;5075939;28;20204;-67
2021/08/10 07:48:04;;;;;;;10.65;4.53;;;;;;;21.80;73.43;96534.47;5075689;28;20207;-67
2021/08/10 07:50:30;;;;;;;7.88;3.60;;;;;;;21.31;73.19;96534.22;5076237;28;20212;-67
2021/08/10 07:52:57;;;;;;;8.43;3.65;;;;;;;21.72;73.09;96537.56;5076135;28;20220;-67
2021/08/10 07:55:23;;;;;;;12.77;4.50;;;;;;;21.41;72.69;96529.91;5075951;28;20211;-67
2021/08/10 07:57:50;;;;;;;8.90;4.10;;;;;;;21.84;72.74;96532.94;5075507;28;20207;-67
2021/08/10 08:00:17;;;;;;;7.38;3.83;;;;;;;22.19;75.08;96531.75;5075420;28;20204;-67
2021/08/10 08:02:43;;;;;;;12.50;5.15;;;;;;;22.58;71.11;96536.19;5071689;28;20228;-67
2021/08/10 08:05:11;;;;;;;7.07;3.78;;;;;;;22.97;68.60;96536.03;5075989;28;20208;-67
2021/08/10 08:07:38;;;;;;;6.38;4.18;;;;;;;22.94;70.22;96531.16;5075858;28;20759;-67
2021/08/10 08:10:05;;;;;;;8.73;4.43;;;;;;;23.00;68.15;96522.13;5074352;28;20585;-67
2021/08/10 08:12:31;;;;;;;10.00;3.83;;;;;;;23.30;69.42;96524.16;5074150;28;20651;-67
2021/08/10 08:14:58;;;;;;;7.80;3.90;;;;;;;23.48;68.39;96521.16;5074234;28;20968;-67
2021/08/10 08:17:24;;;;;;;6.68;3.90;;;;;;;23.59;66.85;96525.63;5075301;28;20196;-67
2021/08/10 08:19:51;;;;;;;5.50;3.53;;;;;;;23.53;68.99;96523.13;5074762;28;20219;-67
2021/08/10 08:22:19;;;;;;;5.38;3.60;;;;;;;23.65;67.84;96521.94;5074744;28;20224;-67
2021/08/10 08:24:45;;;;;;;6.22;3.70;;;;;;;23.67;67.65;96521.69;5076036;28;20208;-67
2021/08/10 08:27:12;;;;;;;5.45;3.70;;;;;;;23.73;67.68;96521.53;5074042;28;20724;-67
2021/08/10 08:29:39;;;;;;;6.15;3.40;;;;;;;23.80;64.87;96518.63;5074566;28;20361;-67
2021/08/10 08:32:07;;;;;;;4.78;2.95;;;;;;;23.48;63.79;96521.16;5073774;28;20208;-67
2021/08/10 08:34:34;;;;;;;9.18;3.03;;;;;;;23.93;64.74;96509.09;5075330;28;20203;-67
2021/08/10 08:37:00;;;;;;;7.03;3.10;;;;;;;23.90;64.53;96519.56;5073217;28;20465;-67
2021/08/10 08:39:28;;;;;;;5.15;2.97;;;;;;;23.61;63.73;96523.50;5074976;28;20203;-67
2021/08/10 08:41:55;;;;;;;4.72;2.88;;;;;;;23.51;64.02;96530.63;5075243;28;20204;-67
2021/08/10 08:44:22;;;;;;;5.40;3.20;;;;;;;23.47;63.49;96527.63;5074291;28;20963;-67
2021/08/10 08:46:49;;;;;;;6.28;3.22;;;;;;;23.49;63.65;96528.19;5073763;28;20668;-67
2021/08/10 08:49:16;;;;;;;7.50;2.90;;;;;;;23.23;64.23;96524.59;5073279;28;20199;-67
2021/08/10 08:51:45;;;;;;;6.82;2.65;;;;;;;23.54;63.61;96530.13;5075763;28;20204;-67
2021/08/10 08:54:12;;;;;;;5.07;2.67;;;;;;;23.36;62.00;96527.75;5075929;28;20219;-67
2021/08/10 08:56:40;;;;;;;6.70;2.97;;;;;;;23.98;64.27;96516.41;5072929;28;20238;-67
2021/08/10 08:59:07;;;;;;;6.57;3.00;;;;;;;23.75;62.35;96518.56;5073041;28;20204;-67
2021/08/10 09:01:34;;;;;;;5.13;2.70;;;;;;;23.65;63.44;96519.25;5075219;28;20204;-67
2021/08/10 09:04:01;;;;;;;4.85;2.72;;;;;;;24.16;59.13;96513.34;5075455;28;20235;-67
2021/08/10 09:06:27;;;;;;;4.70;2.50;;;;;;;24.09;57.53;96518.94;5074138;28;20211;-67
2021/08/10 09:08:56;;;;;;;5.32;2.40;;;;;;;24.02;58.95;96506.78;5074756;28;20214;-67
2021/08/10 09:11:23;;;;;;;8.57;2.65;;;;;;;24.62;59.67;96503.59;5074301;28;20664;-67
2021/08/10 09:13:58;;;;;;;8.07;2.85;;;;;;;24.58;62.29;96510.56;5077808;28;20223;-67
2021/08/10 09:16:25;;;;;;;6.55;2.83;;;;;;;24.89;60.82;96507.03;5077187;28;20546;-66
2021/08/10 09:18:52;;;;;;;4.10;2.58;;;;;;;25.00;59.24;96503.34;5079317;28;20683;-67
2021/08/10 09:21:20;;;;;;;4.30;2.63;;;;;;;25.44;59.54;96499.28;5076594;28;20204;-67
2021/08/10 09:23:49;;;;;;;5.35;2.60;;;;;;;25.18;58.79;96500.25;5074576;28;20223;-67
2021/08/10 09:26:17;;;;;;;6.57;2.58;;;;;;;25.33;55.90;96484.13;5077693;28;20216;-67
2021/08/10 09:28:45;;;;;;;5.05;2.20;;;;;;;25.14;54.39;96482.97;5080110;28;20239;-67
2021/08/10 09:31:34;;;;;;;4.68;2.70;;;;;;;25.50;57.36;96477.47;5078635;28;21530;-67
2021/08/10 09:34:03;;;;;;;6.35;2.67;;;;;;;25.30;56.89;96479.25;5079588;28;20474;-67
2021/08/10 09:36:30;;;;;;;4.93;2.60;;;;;;;25.83;56.81;96480.56;5078791;28;20204;-67
2021/08/10 09:38:57;;;;;;;5.00;2.60;;;;;;;25.95;58.00;96489.28;5080029;28;20211;-66
2021/08/10 09:41:25;;;;;;;5.20;2.83;;;;;;;25.98;54.14;96487.91;5079339;28;20943;-67
2021/08/10 09:44:07;;;;;;;5.65;3.10;;;;;;;25.86;53.01;96482.78;5079371;28;20237;-67
2021/08/10 09:46:35;;;;;;;7.43;2.60;;;;;;;25.82;54.09;96478.94;5078705;28;20239;-67
2021/08/10 09:49:03;;;;;;;3.70;2.30;;;;;;;25.95;51.15;96483.88;5076405;28;20427;-67
2021/08/10 09:51:31;;;;;;;5.30;2.50;;;;;;;25.83;52.42;96477.88;5079389;28;20684;-67
2021/08/10 09:53:59;;;;;;;5.63;2.75;;;;;;;26.32;52.46;96478.25;5079832;28;20593;-67
2021/08/10 09:56:40;;;;;;;4.88;2.05;;;;;;;26.35;51.53;96475.84;5078480;28;20207;-67
2021/08/10 09:59:06;;;;;;;4.47;2.22;;;;;;;26.55;51.94;96481.25;5079020;28;20203;-67
2021/08/10 10:01:36;;;;;;;4.05;2.50;;;;;;;26.51;53.77;96474.78;5080144;28;21200;-67
2021/08/10 10:04:18;;;;;;;5.43;2.25;;;;;;;26.86;51.83;96480.16;5079393;28;20930;-67
2021/08/10 10:06:45;;;;;;;4.60;2.20;;;;;;;27.01;51.54;96475.59;5078616;28;20215;-67
2021/08/10 10:09:12;;;;;;;7.38;2.40;;;;;;;27.08;48.36;96474.19;5079396;28;20204;-67
2021/08/10 10:11:41;;;;;;;5.85;2.30;;;;;;;27.39;51.95;96464.94;5078957;28;21078;-67
2021/08/10 10:14:08;;;;;;;3.67;2.03;;;;;;;26.88;51.23;96467.97;5078741;28;20222;-67
2021/08/10 10:16:39;;;;;;;7.38;2.30;;;;;;;26.53;49.70;96469.91;5078664;28;20199;-67
2021/08/10 10:19:09;;;;;;;4.63;2.10;;;;;;;26.50;49.70;96463.16;5079116;28;20484;-66
2021/08/10 10:21:37;;;;;;;3.97;1.90;;;;;;;26.94;50.52;96471.50;5078627;28;20485;-66
2021/08/10 10:24:05;;;;;;;4.43;2.10;;;;;;;26.80;49.89;96465.03;5078505;28;20557;-67
2021/08/10 10:26:33;;;;;;;3.70;1.98;;;;;;;26.52;50.07;96462.88;5077778;28;20196;-67
2021/08/10 10:29:00;;;;;;;4.28;2.40;;;;;;;27.03;52.07;96464.50;5078703;28;20207;-67
2021/08/10 10:31:27;;;;;;;4.20;2.03;;;;;;;26.53;50.27;96459.09;5079163;28;20562;-67
2021/08/10 10:33:56;;;;;;;5.40;2.33;;;;;;;26.81;52.13;96461.25;5078572;28;20294;-67
2021/08/10 10:36:22;;;;;;;5.15;2.42;;;;;;;26.66;51.24;96459.34;5077294;28;20203;-67
2021/08/10 10:38:50;;;;;;;3.45;2.08;;;;;;;26.34;50.39;96451.81;5078285;28;20220;-67
2021/08/10 10:41:18;;;;;;;5.93;2.00;;;;;;;26.43;50.45;96452.91;5079037;28;20199;-67
2021/08/10 10:43:44;;;;;;;7.30;2.38;;;;;;;26.55;50.35;96452.34;5078378;28;20224;-66
2021/08/10 10:46:25;;;;;;;4.47;2.20;;;;;;;26.99;50.46;96447.19;5077479;28;20204;-67
2021/08/10 10:48:52;;;;;;;4.65;2.05;;;;;;;27.48;51.10;96447.03;5074631;28;20203;-67
2021/08/10 10:51:26;;;;;;;8.25;2.40;;;;;;;28.00;50.86;96441.91;5078073;28;20215;-67
2021/08/10 10:53:52;;;;;;;4.88;2.35;;;;;;;27.52;48.79;96442.69;5078320;28;20239;-67
2021/08/10 10:56:33;;;;;;;6.95;2.65;;;;;;;27.92;48.89;96442.50;5077463;28;20208;-66
2021/08/10 10:59:28;;;;;;;5.22;1.90;;;;;;;28.45;49.32;96437.81;5078090;28;20227;-67
2021/08/10 11:02:17;;;;;;;5.60;2.30;;;;;;;28.31;49.76;96435.19;5078158;28;20208;-67
2021/08/10 11:05:21;;;;;;;2.83;1.98;;;;;;;28.86;47.82;96433.66;5077889;28;20216;-67
2021/08/10 11:07:52;;;;;;;5.32;2.55;;;;;;;29.06;50.82;96433.44;5077943;28;20204;-67
2021/08/10 11:10:39;;;;;;;5.57;2.65;;;;;;;29.34;48.51;96435.34;5078099;28;20231;-67
2021/08/10 11:13:40;;;;;;;4.80;2.42;;;;;;;29.25;47.94;96424.28;5078930;28;20487;-67
2021/08/10 11:16:08;;;;;;;6.65;3.00;;;;;;;29.33;48.96;96428.28;5077000;28;20212;-67
2021/08/10 11:18:35;;;;;;;6.57;2.45;;;;;;;28.82;45.78;96420.94;5077518;28;20667;-67
2021/08/10 11:21:23;;;;;;;3.90;2.20;;;;;;;28.61;46.47;96425.72;5077273;28;20207;-67
2021/08/10 11:23:50;;;;;;;5.53;2.15;;;;;;;28.27;46.46;96423.31;5077241;28;20643;-67
2021/08/10 11:26:41;;;;;;;5.78;2.50;;;;;;;28.70;48.33;96423.22;5077185;28;20215;-67
2021/08/10 11:29:10;;;;;;;4.25;2.28;;;;;;;28.22;47.23;96426.06;5077517;28;20200;-67
2021/08/10 11:31:41;;;;;;;4.82;2.50;;;;;;;27.59;48.59;96424.25;5077602;28;20226;-67
2021/08/10 11:34:31;;;;;;;8.15;2.45;;;;;;;27.97;48.54;96429.72;5077331;28;20220;-67
2021/08/10 11:37:20;;;;;;;5.32;2.33;;;;;;;27.97;48.34;96423.50;5075438;28;20210;-67
2021/08/10 11:40:04;;;;;;;4.25;2.13;;;;;;;27.55;48.76;96428.56;5077646;28;20218;-67